sensor_id;sensor_type;location;lat;lon;timestamp;P1;durP1;ratioP1;P2;durP2;ratioP2
10311;SDS011;5201;48.776;9.128;2022-08-30T00:00:39;2.60;;;2.30;;
10311;SDS011;5201;48.776;9.128;2022-08-30T00:03:23;2.90;;;2.20;;
10311;SDS011;5201;48.776;9.128;2022-08-30T00:05:49;5.47;;;2.73;;
10311;SDS011;5201;48.776;9.128;2022-08-30T00:08:15;5.03;;;2.53;;
10311;SDS011;5201;48.776;9.128;2022-08-30T00:10:41;7.77;;;2.80;;
10311;SDS011;5201;48.776;9.128;2022-08-30T00:13:07;4.10;;;1.73;;
10311;SDS011;5201;48.776;9.128;2022-08-30T00:15:36;2.43;;;2.20;;
10311;SDS011;5201;48.776;9.128;2022-08-30T00:18:01;3.00;;;2.50;;
10311;SDS011;5201;48.776;9.128;2022-08-30T00:20:28;5.37;;;2.63;;
10311;SDS011;5201;48.776;9.128;2022-08-30T00:22:55;3.13;;;2.60;;
10311;SDS011;5201;48.776;9.128;2022-08-30T00:25:21;5.67;;;2.70;;
10311;SDS011;5201;48.776;9.128;2022-08-30T00:27:47;2.93;;;2.60;;
10311;SDS011;5201;48.776;9.128;2022-08-30T00:30:13;3.00;;;1.87;;
10311;SDS011;5201;48.776;9.128;2022-08-30T00:32:41;4.90;;;2.20;;
10311;SDS011;5201;48.776;9.128;2022-08-30T00:35:08;8.80;;;2.27;;
10311;SDS011;5201;48.776;9.128;2022-08-30T00:37:35;3.33;;;2.53;;
10311;SDS011;5201;48.776;9.128;2022-08-30T00:40:01;4.97;;;2.77;;
10311;SDS011;5201;48.776;9.128;2022-08-30T00:42:29;4.93;;;2.30;;
10311;SDS011;5201;48.776;9.128;2022-08-30T00:44:55;2.87;;;2.10;;
10311;SDS011;5201;48.776;9.128;2022-08-30T00:47:21;4.63;;;2.60;;
10311;SDS011;5201;48.776;9.128;2022-08-30T00:49:48;5.80;;;2.90;;
10311;SDS011;5201;48.776;9.128;2022-08-30T00:52:17;6.17;;;2.70;;
10311;SDS011;5201;48.776;9.128;2022-08-30T00:54:44;2.93;;;2.40;;
10311;SDS011;5201;48.776;9.128;2022-08-30T00:57:13;3.27;;;2.30;;
10311;SDS011;5201;48.776;9.128;2022-08-30T00:59:40;5.03;;;2.53;;
10311;SDS011;5201;48.776;9.128;2022-08-30T01:02:08;5.03;;;2.40;;
10311;SDS011;5201;48.776;9.128;2022-08-30T01:04:34;3.30;;;2.50;;
10311;SDS011;5201;48.776;9.128;2022-08-30T01:07:02;6.03;;;2.20;;
10311;SDS011;5201;48.776;9.128;2022-08-30T01:09:28;3.43;;;2.90;;
10311;SDS011;5201;48.776;9.128;2022-08-30T01:11:54;3.10;;;2.27;;
10311;SDS011;5201;48.776;9.128;2022-08-30T01:14:20;5.83;;;2.40;;
10311;SDS011;5201;48.776;9.128;2022-08-30T01:16:47;4.57;;;2.67;;
10311;SDS011;5201;48.776;9.128;2022-08-30T01:19:20;2.40;;;2.17;;
10311;SDS011;5201;48.776;9.128;2022-08-30T01:22:01;7.33;;;2.83;;
10311;SDS011;5201;48.776;9.128;2022-08-30T01:24:32;3.70;;;2.60;;
10311;SDS011;5201;48.776;9.128;2022-08-30T01:26:59;4.40;;;2.83;;
10311;SDS011;5201;48.776;9.128;2022-08-30T01:29:25;6.40;;;2.57;;
10311;SDS011;5201;48.776;9.128;2022-08-30T01:31:52;4.30;;;2.40;;
10311;SDS011;5201;48.776;9.128;2022-08-30T01:34:17;4.40;;;2.30;;
10311;SDS011;5201;48.776;9.128;2022-08-30T01:36:44;3.63;;;2.60;;
10311;SDS011;5201;48.776;9.128;2022-08-30T01:39:11;5.13;;;2.70;;
10311;SDS011;5201;48.776;9.128;2022-08-30T01:41:39;6.13;;;3.17;;
10311;SDS011;5201;48.776;9.128;2022-08-30T01:44:06;3.23;;;2.63;;
10311;SDS011;5201;48.776;9.128;2022-08-30T01:46:35;3.60;;;2.50;;
10311;SDS011;5201;48.776;9.128;2022-08-30T01:49:05;4.30;;;2.67;;
10311;SDS011;5201;48.776;9.128;2022-08-30T01:51:33;6.97;;;2.77;;
10311;SDS011;5201;48.776;9.128;2022-08-30T01:54:01;10.23;;;2.43;;
10311;SDS011;5201;48.776;9.128;2022-08-30T01:56:27;3.07;;;2.77;;
10311;SDS011;5201;48.776;9.128;2022-08-30T01:58:54;3.87;;;2.90;;
10311;SDS011;5201;48.776;9.128;2022-08-30T02:01:24;2.87;;;2.43;;
10311;SDS011;5201;48.776;9.128;2022-08-30T02:03:52;5.20;;;2.40;;
10311;SDS011;5201;48.776;9.128;2022-08-30T02:06:19;7.10;;;3.03;;
10311;SDS011;5201;48.776;9.128;2022-08-30T02:08:45;7.07;;;2.93;;
10311;SDS011;5201;48.776;9.128;2022-08-30T02:11:12;4.70;;;2.60;;
10311;SDS011;5201;48.776;9.128;2022-08-30T02:13:39;4.07;;;2.70;;
10311;SDS011;5201;48.776;9.128;2022-08-30T02:16:06;3.83;;;2.93;;
10311;SDS011;5201;48.776;9.128;2022-08-30T02:18:34;3.33;;;2.60;;
10311;SDS011;5201;48.776;9.128;2022-08-30T02:21:01;7.07;;;2.83;;
10311;SDS011;5201;48.776;9.128;2022-08-30T02:23:27;5.27;;;2.67;;
10311;SDS011;5201;48.776;9.128;2022-08-30T02:25:53;9.40;;;3.00;;
10311;SDS011;5201;48.776;9.128;2022-08-30T02:28:18;5.27;;;2.83;;
10311;SDS011;5201;48.776;9.128;2022-08-30T02:30:45;5.20;;;3.20;;
10311;SDS011;5201;48.776;9.128;2022-08-30T02:33:12;3.80;;;2.67;;
10311;SDS011;5201;48.776;9.128;2022-08-30T02:35:38;4.30;;;2.40;;
10311;SDS011;5201;48.776;9.128;2022-08-30T02:38:04;4.13;;;2.37;;
10311;SDS011;5201;48.776;9.128;2022-08-30T02:40:30;4.33;;;2.70;;
10311;SDS011;5201;48.776;9.128;2022-08-30T02:42:55;5.90;;;2.40;;
10311;SDS011;5201;48.776;9.128;2022-08-30T02:45:21;6.67;;;2.77;;
10311;SDS011;5201;48.776;9.128;2022-08-30T02:47:47;3.90;;;2.73;;
10311;SDS011;5201;48.776;9.128;2022-08-30T02:50:13;6.40;;;3.27;;
10311;SDS011;5201;48.776;9.128;2022-08-30T02:52:39;3.50;;;2.97;;
10311;SDS011;5201;48.776;9.128;2022-08-30T02:55:05;5.43;;;2.43;;
10311;SDS011;5201;48.776;9.128;2022-08-30T02:57:31;5.70;;;2.90;;
10311;SDS011;5201;48.776;9.128;2022-08-30T02:59:57;3.60;;;2.73;;
10311;SDS011;5201;48.776;9.128;2022-08-30T03:02:23;3.80;;;2.73;;
10311;SDS011;5201;48.776;9.128;2022-08-30T03:04:49;6.13;;;2.67;;
10311;SDS011;5201;48.776;9.128;2022-08-30T03:07:16;3.77;;;2.50;;
10311;SDS011;5201;48.776;9.128;2022-08-30T03:09:42;2.90;;;2.60;;
10311;SDS011;5201;48.776;9.128;2022-08-30T03:12:08;5.93;;;2.93;;
10311;SDS011;5201;48.776;9.128;2022-08-30T03:14:35;4.43;;;3.00;;
10311;SDS011;5201;48.776;9.128;2022-08-30T03:17:03;4.20;;;3.20;;
10311;SDS011;5201;48.776;9.128;2022-08-30T03:19:31;4.07;;;2.80;;
10311;SDS011;5201;48.776;9.128;2022-08-30T03:21:57;5.03;;;2.47;;
10311;SDS011;5201;48.776;9.128;2022-08-30T03:24:23;5.90;;;2.80;;
10311;SDS011;5201;48.776;9.128;2022-08-30T03:26:49;4.83;;;3.00;;
10311;SDS011;5201;48.776;9.128;2022-08-30T03:29:15;5.33;;;2.60;;
10311;SDS011;5201;48.776;9.128;2022-08-30T03:31:41;4.73;;;2.87;;
10311;SDS011;5201;48.776;9.128;2022-08-30T03:34:07;5.37;;;2.73;;
10311;SDS011;5201;48.776;9.128;2022-08-30T03:36:35;8.00;;;2.87;;
10311;SDS011;5201;48.776;9.128;2022-08-30T03:39:02;6.17;;;2.70;;
10311;SDS011;5201;48.776;9.128;2022-08-30T03:41:29;7.43;;;3.00;;
10311;SDS011;5201;48.776;9.128;2022-08-30T03:43:56;5.50;;;3.33;;
10311;SDS011;5201;48.776;9.128;2022-08-30T03:46:22;5.43;;;3.03;;
10311;SDS011;5201;48.776;9.128;2022-08-30T03:48:48;3.53;;;3.23;;
10311;SDS011;5201;48.776;9.128;2022-08-30T03:51:13;6.17;;;2.70;;
10311;SDS011;5201;48.776;9.128;2022-08-30T03:53:39;5.10;;;3.20;;
10311;SDS011;5201;48.776;9.128;2022-08-30T03:56:05;3.10;;;2.80;;
10311;SDS011;5201;48.776;9.128;2022-08-30T03:58:31;4.37;;;3.23;;
10311;SDS011;5201;48.776;9.128;2022-08-30T04:00:57;3.87;;;2.87;;
10311;SDS011;5201;48.776;9.128;2022-08-30T04:03:22;3.20;;;2.90;;
10311;SDS011;5201;48.776;9.128;2022-08-30T04:05:50;5.03;;;2.80;;
10311;SDS011;5201;48.776;9.128;2022-08-30T04:08:19;7.00;;;3.57;;
10311;SDS011;5201;48.776;9.128;2022-08-30T04:10:46;5.67;;;3.07;;
10311;SDS011;5201;48.776;9.128;2022-08-30T04:13:12;4.03;;;3.50;;
10311;SDS011;5201;48.776;9.128;2022-08-30T04:15:39;6.07;;;3.50;;
10311;SDS011;5201;48.776;9.128;2022-08-30T04:18:05;3.60;;;3.17;;
10311;SDS011;5201;48.776;9.128;2022-08-30T04:20:31;5.70;;;3.20;;
10311;SDS011;5201;48.776;9.128;2022-08-30T04:22:57;6.67;;;2.63;;
10311;SDS011;5201;48.776;9.128;2022-08-30T04:25:22;4.57;;;2.53;;
10311;SDS011;5201;48.776;9.128;2022-08-30T04:27:48;4.70;;;3.30;;
10311;SDS011;5201;48.776;9.128;2022-08-30T04:30:14;4.80;;;3.47;;
10311;SDS011;5201;48.776;9.128;2022-08-30T04:32:43;7.60;;;3.67;;
10311;SDS011;5201;48.776;9.128;2022-08-30T04:35:09;6.60;;;3.27;;
10311;SDS011;5201;48.776;9.128;2022-08-30T04:37:36;3.47;;;2.83;;
10311;SDS011;5201;48.776;9.128;2022-08-30T04:40:03;4.60;;;3.03;;
10311;SDS011;5201;48.776;9.128;2022-08-30T04:42:31;3.33;;;2.80;;
10311;SDS011;5201;48.776;9.128;2022-08-30T04:44:58;5.67;;;3.27;;
10311;SDS011;5201;48.776;9.128;2022-08-30T04:47:26;3.87;;;3.30;;
10311;SDS011;5201;48.776;9.128;2022-08-30T04:49:52;3.60;;;3.03;;
10311;SDS011;5201;48.776;9.128;2022-08-30T04:52:18;3.63;;;3.03;;
10311;SDS011;5201;48.776;9.128;2022-08-30T04:54:44;5.57;;;3.20;;
10311;SDS011;5201;48.776;9.128;2022-08-30T04:57:09;5.47;;;3.13;;
10311;SDS011;5201;48.776;9.128;2022-08-30T04:59:37;4.10;;;3.70;;
10311;SDS011;5201;48.776;9.128;2022-08-30T05:02:03;4.83;;;3.50;;
10311;SDS011;5201;48.776;9.128;2022-08-30T05:04:29;7.03;;;3.43;;
10311;SDS011;5201;48.776;9.128;2022-08-30T05:06:54;5.37;;;3.00;;
10311;SDS011;5201;48.776;9.128;2022-08-30T05:09:20;7.53;;;3.27;;
10311;SDS011;5201;48.776;9.128;2022-08-30T05:11:46;4.10;;;2.73;;
10311;SDS011;5201;48.776;9.128;2022-08-30T05:14:12;4.23;;;3.20;;
10311;SDS011;5201;48.776;9.128;2022-08-30T05:16:38;3.53;;;3.23;;
10311;SDS011;5201;48.776;9.128;2022-08-30T05:19:05;4.13;;;2.97;;
10311;SDS011;5201;48.776;9.128;2022-08-30T05:21:32;6.20;;;3.00;;
10311;SDS011;5201;48.776;9.128;2022-08-30T05:23:58;4.50;;;3.60;;
10311;SDS011;5201;48.776;9.128;2022-08-30T05:26:26;6.13;;;3.63;;
10311;SDS011;5201;48.776;9.128;2022-08-30T05:28:53;5.00;;;3.40;;
10311;SDS011;5201;48.776;9.128;2022-08-30T05:31:20;3.63;;;3.33;;
10311;SDS011;5201;48.776;9.128;2022-08-30T05:33:47;3.50;;;2.90;;
10311;SDS011;5201;48.776;9.128;2022-08-30T05:36:14;4.60;;;3.07;;
10311;SDS011;5201;48.776;9.128;2022-08-30T05:38:42;6.60;;;2.87;;
10311;SDS011;5201;48.776;9.128;2022-08-30T05:41:07;5.67;;;3.17;;
10311;SDS011;5201;48.776;9.128;2022-08-30T05:43:33;6.50;;;3.33;;
10311;SDS011;5201;48.776;9.128;2022-08-30T05:46:00;3.97;;;3.00;;
10311;SDS011;5201;48.776;9.128;2022-08-30T05:48:37;3.90;;;3.17;;
10311;SDS011;5201;48.776;9.128;2022-08-30T05:51:04;5.80;;;3.00;;
10311;SDS011;5201;48.776;9.128;2022-08-30T05:53:35;5.60;;;3.53;;
10311;SDS011;5201;48.776;9.128;2022-08-30T05:56:03;5.50;;;3.03;;
10311;SDS011;5201;48.776;9.128;2022-08-30T05:58:31;4.07;;;3.20;;
10311;SDS011;5201;48.776;9.128;2022-08-30T06:00:56;5.53;;;3.33;;
10311;SDS011;5201;48.776;9.128;2022-08-30T06:03:23;4.33;;;3.10;;
10311;SDS011;5201;48.776;9.128;2022-08-30T06:05:50;8.07;;;3.57;;
10311;SDS011;5201;48.776;9.128;2022-08-30T06:08:16;6.17;;;3.63;;
10311;SDS011;5201;48.776;9.128;2022-08-30T06:10:42;4.77;;;3.13;;
10311;SDS011;5201;48.776;9.128;2022-08-30T06:13:08;4.77;;;3.53;;
10311;SDS011;5201;48.776;9.128;2022-08-30T06:15:33;5.93;;;3.87;;
10311;SDS011;5201;48.776;9.128;2022-08-30T06:17:59;5.07;;;3.47;;
10311;SDS011;5201;48.776;9.128;2022-08-30T06:20:25;8.57;;;3.47;;
10311;SDS011;5201;48.776;9.128;2022-08-30T06:22:50;8.43;;;4.00;;
10311;SDS011;5201;48.776;9.128;2022-08-30T06:25:16;6.30;;;4.03;;
10311;SDS011;5201;48.776;9.128;2022-08-30T06:27:42;5.57;;;3.60;;
10311;SDS011;5201;48.776;9.128;2022-08-30T06:30:08;6.37;;;3.90;;
10311;SDS011;5201;48.776;9.128;2022-08-30T06:32:35;5.40;;;3.70;;
10311;SDS011;5201;48.776;9.128;2022-08-30T06:35:02;6.90;;;4.07;;
10311;SDS011;5201;48.776;9.128;2022-08-30T06:37:28;6.10;;;3.87;;
10311;SDS011;5201;48.776;9.128;2022-08-30T06:39:57;4.90;;;3.17;;
10311;SDS011;5201;48.776;9.128;2022-08-30T06:42:24;6.23;;;4.00;;
10311;SDS011;5201;48.776;9.128;2022-08-30T06:44:56;9.20;;;3.77;;
10311;SDS011;5201;48.776;9.128;2022-08-30T06:47:22;10.33;;;4.33;;
10311;SDS011;5201;48.776;9.128;2022-08-30T06:49:48;5.70;;;3.65;;
10311;SDS011;5201;48.776;9.128;2022-08-30T06:52:14;6.85;;;3.90;;
10311;SDS011;5201;48.776;9.128;2022-08-30T06:54:39;11.50;;;3.78;;
10311;SDS011;5201;48.776;9.128;2022-08-30T06:57:05;9.57;;;4.00;;
10311;SDS011;5201;48.776;9.128;2022-08-30T06:59:30;4.78;;;3.30;;
10311;SDS011;5201;48.776;9.128;2022-08-30T07:01:56;12.50;;;3.33;;
10311;SDS011;5201;48.776;9.128;2022-08-30T07:04:22;7.82;;;4.15;;
10311;SDS011;5201;48.776;9.128;2022-08-30T07:06:48;7.43;;;4.05;;
10311;SDS011;5201;48.776;9.128;2022-08-30T07:09:13;7.30;;;3.53;;
10311;SDS011;5201;48.776;9.128;2022-08-30T07:11:39;5.38;;;3.17;;
10311;SDS011;5201;48.776;9.128;2022-08-30T07:14:06;19.45;;;4.53;;
10311;SDS011;5201;48.776;9.128;2022-08-30T07:16:31;5.10;;;4.00;;
10311;SDS011;5201;48.776;9.128;2022-08-30T07:18:57;6.05;;;3.90;;
10311;SDS011;5201;48.776;9.128;2022-08-30T07:21:35;10.52;;;4.78;;
10311;SDS011;5201;48.776;9.128;2022-08-30T07:24:02;7.82;;;4.32;;
10311;SDS011;5201;48.776;9.128;2022-08-30T07:26:29;7.07;;;4.15;;
10311;SDS011;5201;48.776;9.128;2022-08-30T07:29:01;4.93;;;3.58;;
10311;SDS011;5201;48.776;9.128;2022-08-30T07:31:27;13.40;;;4.05;;
10311;SDS011;5201;48.776;9.128;2022-08-30T07:33:54;5.13;;;3.70;;
10311;SDS011;5201;48.776;9.128;2022-08-30T07:36:20;6.10;;;3.88;;
10311;SDS011;5201;48.776;9.128;2022-08-30T07:38:47;6.32;;;3.60;;
10311;SDS011;5201;48.776;9.128;2022-08-30T07:41:28;5.57;;;3.97;;
10311;SDS011;5201;48.776;9.128;2022-08-30T07:43:56;8.20;;;3.88;;
10311;SDS011;5201;48.776;9.128;2022-08-30T07:46:22;6.40;;;4.07;;
10311;SDS011;5201;48.776;9.128;2022-08-30T07:48:49;6.40;;;4.28;;
10311;SDS011;5201;48.776;9.128;2022-08-30T07:51:17;8.00;;;3.95;;
10311;SDS011;5201;48.776;9.128;2022-08-30T07:53:44;7.85;;;3.53;;
10311;SDS011;5201;48.776;9.128;2022-08-30T07:56:10;6.22;;;4.10;;
10311;SDS011;5201;48.776;9.128;2022-08-30T07:58:36;7.47;;;3.78;;
10311;SDS011;5201;48.776;9.128;2022-08-30T08:01:04;5.75;;;3.25;;
10311;SDS011;5201;48.776;9.128;2022-08-30T08:03:32;6.40;;;3.60;;
10311;SDS011;5201;48.776;9.128;2022-08-30T08:06:00;6.05;;;3.17;;
10311;SDS011;5201;48.776;9.128;2022-08-30T08:08:27;6.00;;;4.10;;
10311;SDS011;5201;48.776;9.128;2022-08-30T08:10:52;15.50;;;4.90;;
10311;SDS011;5201;48.776;9.128;2022-08-30T08:13:18;8.07;;;3.63;;
10311;SDS011;5201;48.776;9.128;2022-08-30T08:15:44;5.88;;;3.42;;
10311;SDS011;5201;48.776;9.128;2022-08-30T08:18:09;5.32;;;2.92;;
10311;SDS011;5201;48.776;9.128;2022-08-30T08:20:36;3.45;;;2.88;;
10311;SDS011;5201;48.776;9.128;2022-08-30T08:23:02;5.07;;;2.78;;
10311;SDS011;5201;48.776;9.128;2022-08-30T08:25:28;3.72;;;3.10;;
10311;SDS011;5201;48.776;9.128;2022-08-30T08:27:54;5.95;;;3.60;;
10311;SDS011;5201;48.776;9.128;2022-08-30T08:30:20;5.57;;;3.03;;
10311;SDS011;5201;48.776;9.128;2022-08-30T08:32:46;5.93;;;3.08;;
10311;SDS011;5201;48.776;9.128;2022-08-30T08:35:13;5.22;;;3.10;;
10311;SDS011;5201;48.776;9.128;2022-08-30T08:37:40;9.88;;;3.55;;
10311;SDS011;5201;48.776;9.128;2022-08-30T08:40:06;7.88;;;3.13;;
10311;SDS011;5201;48.776;9.128;2022-08-30T08:51:31;6.78;;;3.10;;
10311;SDS011;5201;48.776;9.128;2022-08-30T08:54:21;6.97;;;2.95;;
10311;SDS011;5201;48.776;9.128;2022-08-30T08:56:51;6.55;;;2.72;;
10311;SDS011;5201;48.776;9.128;2022-08-30T08:59:18;4.00;;;2.90;;
10311;SDS011;5201;48.776;9.128;2022-08-30T09:01:43;3.35;;;2.70;;
10311;SDS011;5201;48.776;9.128;2022-08-30T09:04:11;4.50;;;2.72;;
10311;SDS011;5201;48.776;9.128;2022-08-30T09:09:33;2.75;;;2.33;;
10311;SDS011;5201;48.776;9.128;2022-08-30T09:12:03;3.75;;;2.50;;
10311;SDS011;5201;48.776;9.128;2022-08-30T09:14:35;3.88;;;2.83;;
10311;SDS011;5201;48.776;9.128;2022-08-30T09:17:12;2.72;;;2.20;;
10311;SDS011;5201;48.776;9.128;2022-08-30T09:19:41;6.28;;;2.15;;
10311;SDS011;5201;48.776;9.128;2022-08-30T09:24:51;4.20;;;2.47;;
10311;SDS011;5201;48.776;9.128;2022-08-30T09:27:22;8.55;;;2.88;;
10311;SDS011;5201;48.776;9.128;2022-08-30T09:29:58;5.22;;;2.95;;
10311;SDS011;5201;48.776;9.128;2022-08-30T09:32:31;3.13;;;2.47;;
10311;SDS011;5201;48.776;9.128;2022-08-30T09:35:00;5.68;;;2.58;;
10311;SDS011;5201;48.776;9.128;2022-08-30T09:37:31;3.40;;;2.60;;
10311;SDS011;5201;48.776;9.128;2022-08-30T09:40:01;2.85;;;2.35;;
10311;SDS011;5201;48.776;9.128;2022-08-30T09:42:34;6.32;;;2.50;;
10311;SDS011;5201;48.776;9.128;2022-08-30T09:45:01;5.05;;;2.70;;
10311;SDS011;5201;48.776;9.128;2022-08-30T09:47:41;7.32;;;2.58;;
10311;SDS011;5201;48.776;9.128;2022-08-30T09:50:14;3.55;;;2.53;;
10311;SDS011;5201;48.776;9.128;2022-08-30T09:57:58;3.00;;;2.53;;
10311;SDS011;5201;48.776;9.128;2022-08-30T10:00:27;3.10;;;2.20;;
10311;SDS011;5201;48.776;9.128;2022-08-30T10:03:07;3.30;;;2.00;;
10311;SDS011;5201;48.776;9.128;2022-08-30T10:11:00;4.55;;;2.22;;
10311;SDS011;5201;48.776;9.128;2022-08-30T10:21:46;2.35;;;2.00;;
10311;SDS011;5201;48.776;9.128;2022-08-30T10:24:19;2.47;;;2.08;;
10311;SDS011;5201;48.776;9.128;2022-08-30T10:26:56;5.55;;;2.25;;
10311;SDS011;5201;48.776;9.128;2022-08-30T10:34:50;3.15;;;1.88;;
10311;SDS011;5201;48.776;9.128;2022-08-30T10:37:26;2.25;;;1.88;;
10311;SDS011;5201;48.776;9.128;2022-08-30T10:39:56;2.88;;;2.05;;
10311;SDS011;5201;48.776;9.128;2022-08-30T10:42:46;4.40;;;1.60;;
10311;SDS011;5201;48.776;9.128;2022-08-30T10:45:14;3.03;;;2.72;;
10311;SDS011;5201;48.776;9.128;2022-08-30T10:47:43;2.45;;;1.77;;
10311;SDS011;5201;48.776;9.128;2022-08-30T10:50:26;3.28;;;1.65;;
10311;SDS011;5201;48.776;9.128;2022-08-30T10:52:59;5.53;;;1.85;;
10311;SDS011;5201;48.776;9.128;2022-08-30T10:55:34;1.60;;;1.50;;
10311;SDS011;5201;48.776;9.128;2022-08-30T10:58:08;1.55;;;1.38;;
10311;SDS011;5201;48.776;9.128;2022-08-30T11:00:38;2.40;;;1.50;;
10311;SDS011;5201;48.776;9.128;2022-08-30T11:14:27;2.17;;;1.98;;
10311;SDS011;5201;48.776;9.128;2022-08-30T11:16:54;1.80;;;1.70;;
10311;SDS011;5201;48.776;9.128;2022-08-30T11:19:24;2.92;;;1.60;;
10311;SDS011;5201;48.776;9.128;2022-08-30T11:22:07;1.90;;;1.80;;
10311;SDS011;5201;48.776;9.128;2022-08-30T11:35:42;3.15;;;1.90;;
10311;SDS011;5201;48.776;9.128;2022-08-30T11:40:52;1.75;;;1.65;;
10311;SDS011;5201;48.776;9.128;2022-08-30T11:59:57;3.78;;;2.17;;
10311;SDS011;5201;48.776;9.128;2022-08-30T12:02:44;2.30;;;1.83;;
10311;SDS011;5201;48.776;9.128;2022-08-30T12:08:04;4.53;;;1.90;;
10311;SDS011;5201;48.776;9.128;2022-08-30T12:10:40;2.85;;;2.15;;
10311;SDS011;5201;48.776;9.128;2022-08-30T12:13:08;2.08;;;1.92;;
10311;SDS011;5201;48.776;9.128;2022-08-30T12:15:58;2.65;;;2.22;;
10311;SDS011;5201;48.776;9.128;2022-08-30T12:18:31;1.95;;;1.75;;
10311;SDS011;5201;48.776;9.128;2022-08-30T12:21:52;5.82;;;1.73;;
10311;SDS011;5201;48.776;9.128;2022-08-30T12:24:05;2.67;;;1.67;;
10311;SDS011;5201;48.776;9.128;2022-08-30T12:26:43;3.13;;;1.90;;
10311;SDS011;5201;48.776;9.128;2022-08-30T12:29:19;2.50;;;1.75;;
10311;SDS011;5201;48.776;9.128;2022-08-30T12:31:52;1.90;;;1.80;;
10311;SDS011;5201;48.776;9.128;2022-08-30T12:37:29;2.33;;;1.95;;
10311;SDS011;5201;48.776;9.128;2022-08-30T12:42:34;2.03;;;1.85;;
10311;SDS011;5201;48.776;9.128;2022-08-30T12:45:06;5.93;;;1.70;;
10311;SDS011;5201;48.776;9.128;2022-08-30T12:50:09;4.07;;;2.22;;
10311;SDS011;5201;48.776;9.128;2022-08-30T12:52:40;2.08;;;1.83;;
10311;SDS011;5201;48.776;9.128;2022-08-30T12:55:13;3.05;;;2.03;;
10311;SDS011;5201;48.776;9.128;2022-08-30T12:57:58;5.38;;;2.00;;
10311;SDS011;5201;48.776;9.128;2022-08-30T13:03:42;3.10;;;2.45;;
10311;SDS011;5201;48.776;9.128;2022-08-30T13:05:58;2.30;;;2.10;;
10311;SDS011;5201;48.776;9.128;2022-08-30T13:11:05;2.22;;;2.03;;
10311;SDS011;5201;48.776;9.128;2022-08-30T13:13:44;4.03;;;2.00;;
10311;SDS011;5201;48.776;9.128;2022-08-30T13:18:44;4.07;;;1.92;;
10311;SDS011;5201;48.776;9.128;2022-08-30T13:21:30;2.05;;;1.73;;
10311;SDS011;5201;48.776;9.128;2022-08-30T13:24:04;6.15;;;2.05;;
10311;SDS011;5201;48.776;9.128;2022-08-30T13:26:31;2.97;;;2.33;;
10311;SDS011;5201;48.776;9.128;2022-08-30T13:29:00;4.03;;;2.20;;
10311;SDS011;5201;48.776;9.128;2022-08-30T13:31:28;1.95;;;1.73;;
10311;SDS011;5201;48.776;9.128;2022-08-30T13:33:54;1.80;;;1.70;;
10311;SDS011;5201;48.776;9.128;2022-08-30T13:36:24;2.13;;;1.92;;
10311;SDS011;5201;48.776;9.128;2022-08-30T13:38:53;4.38;;;2.15;;
10311;SDS011;5201;48.776;9.128;2022-08-30T13:41:19;2.10;;;1.88;;
10311;SDS011;5201;48.776;9.128;2022-08-30T13:43:45;2.42;;;1.70;;
10311;SDS011;5201;48.776;9.128;2022-08-30T13:46:11;2.53;;;2.13;;
10311;SDS011;5201;48.776;9.128;2022-08-30T13:48:39;2.30;;;1.73;;
10311;SDS011;5201;48.776;9.128;2022-08-30T13:51:05;2.13;;;1.92;;
10311;SDS011;5201;48.776;9.128;2022-08-30T13:53:31;1.90;;;1.80;;
10311;SDS011;5201;48.776;9.128;2022-08-30T13:55:56;2.30;;;1.92;;
10311;SDS011;5201;48.776;9.128;2022-08-30T13:58:22;2.50;;;2.00;;
10311;SDS011;5201;48.776;9.128;2022-08-30T14:00:47;5.15;;;2.83;;
10311;SDS011;5201;48.776;9.128;2022-08-30T14:03:14;5.03;;;2.30;;
10311;SDS011;5201;48.776;9.128;2022-08-30T14:05:40;2.78;;;2.10;;
10311;SDS011;5201;48.776;9.128;2022-08-30T14:08:07;7.57;;;1.75;;
10311;SDS011;5201;48.776;9.128;2022-08-30T14:10:35;4.55;;;2.05;;
10311;SDS011;5201;48.776;9.128;2022-08-30T14:13:01;2.10;;;1.88;;
10311;SDS011;5201;48.776;9.128;2022-08-30T14:15:29;3.35;;;2.15;;
10311;SDS011;5201;48.776;9.128;2022-08-30T14:17:55;3.72;;;2.03;;
10311;SDS011;5201;48.776;9.128;2022-08-30T14:20:21;2.72;;;1.98;;
10311;SDS011;5201;48.776;9.128;2022-08-30T14:22:46;2.67;;;1.60;;
10311;SDS011;5201;48.776;9.128;2022-08-30T14:25:12;2.97;;;2.00;;
10311;SDS011;5201;48.776;9.128;2022-08-30T14:27:37;2.30;;;1.63;;
10311;SDS011;5201;48.776;9.128;2022-08-30T14:30:04;3.33;;;1.92;;
10311;SDS011;5201;48.776;9.128;2022-08-30T14:32:30;2.10;;;1.90;;
10311;SDS011;5201;48.776;9.128;2022-08-30T14:34:56;3.53;;;1.92;;
10311;SDS011;5201;48.776;9.128;2022-08-30T14:37:21;4.10;;;2.10;;
10311;SDS011;5201;48.776;9.128;2022-08-30T14:39:47;2.63;;;2.05;;
10311;SDS011;5201;48.776;9.128;2022-08-30T14:42:13;2.63;;;1.80;;
10311;SDS011;5201;48.776;9.128;2022-08-30T14:44:38;2.13;;;1.92;;
10311;SDS011;5201;48.776;9.128;2022-08-30T14:47:04;1.85;;;1.70;;
10311;SDS011;5201;48.776;9.128;2022-08-30T14:49:32;2.60;;;1.58;;
10311;SDS011;5201;48.776;9.128;2022-08-30T14:51:57;2.30;;;1.80;;
10311;SDS011;5201;48.776;9.128;2022-08-30T14:54:25;2.03;;;1.80;;
10311;SDS011;5201;48.776;9.128;2022-08-30T14:56:52;3.55;;;1.70;;
10311;SDS011;5201;48.776;9.128;2022-08-30T14:59:18;4.05;;;2.15;;
10311;SDS011;5201;48.776;9.128;2022-08-30T15:01:44;4.70;;;1.85;;
10311;SDS011;5201;48.776;9.128;2022-08-30T15:04:11;3.00;;;2.20;;
10311;SDS011;5201;48.776;9.128;2022-08-30T15:06:38;3.00;;;2.30;;
10311;SDS011;5201;48.776;9.128;2022-08-30T15:09:07;2.70;;;2.13;;
10311;SDS011;5201;48.776;9.128;2022-08-30T15:11:36;3.13;;;2.17;;
10311;SDS011;5201;48.776;9.128;2022-08-30T15:14:02;2.30;;;2.10;;
10311;SDS011;5201;48.776;9.128;2022-08-30T15:16:30;6.13;;;1.90;;
10311;SDS011;5201;48.776;9.128;2022-08-30T15:18:58;2.45;;;2.25;;
10311;SDS011;5201;48.776;9.128;2022-08-30T15:21:25;3.35;;;2.20;;
10311;SDS011;5201;48.776;9.128;2022-08-30T15:23:54;4.22;;;2.58;;
10311;SDS011;5201;48.776;9.128;2022-08-30T15:26:21;5.60;;;2.08;;
10311;SDS011;5201;48.776;9.128;2022-08-30T15:28:47;3.97;;;2.05;;
10311;SDS011;5201;48.776;9.128;2022-08-30T15:31:13;2.67;;;2.25;;
10311;SDS011;5201;48.776;9.128;2022-08-30T15:33:38;2.40;;;2.20;;
10311;SDS011;5201;48.776;9.128;2022-08-30T15:36:05;2.30;;;1.88;;
10311;SDS011;5201;48.776;9.128;2022-08-30T15:38:32;3.72;;;2.35;;
10311;SDS011;5201;48.776;9.128;2022-08-30T15:41:00;2.85;;;2.15;;
10311;SDS011;5201;48.776;9.128;2022-08-30T15:43:28;2.38;;;1.95;;
10311;SDS011;5201;48.776;9.128;2022-08-30T15:45:54;3.45;;;2.03;;
10311;SDS011;5201;48.776;9.128;2022-08-30T15:48:20;2.20;;;2.00;;
10311;SDS011;5201;48.776;9.128;2022-08-30T15:50:46;3.08;;;2.13;;
10311;SDS011;5201;48.776;9.128;2022-08-30T15:53:21;2.67;;;2.30;;
10311;SDS011;5201;48.776;9.128;2022-08-30T15:55:46;6.00;;;2.22;;
10311;SDS011;5201;48.776;9.128;2022-08-30T15:58:12;2.08;;;1.88;;
10311;SDS011;5201;48.776;9.128;2022-08-30T16:00:38;3.50;;;2.40;;
10311;SDS011;5201;48.776;9.128;2022-08-30T16:03:04;1.75;;;1.65;;
10311;SDS011;5201;48.776;9.128;2022-08-30T16:05:30;2.38;;;1.88;;
10311;SDS011;5201;48.776;9.128;2022-08-30T16:07:56;3.03;;;1.98;;
10311;SDS011;5201;48.776;9.128;2022-08-30T16:10:22;2.63;;;1.90;;
10311;SDS011;5201;48.776;9.128;2022-08-30T16:12:47;4.95;;;2.33;;
10311;SDS011;5201;48.776;9.128;2022-08-30T16:15:13;2.72;;;2.10;;
10311;SDS011;5201;48.776;9.128;2022-08-30T16:17:39;2.88;;;2.03;;
10311;SDS011;5201;48.776;9.128;2022-08-30T16:20:05;2.58;;;2.03;;
10311;SDS011;5201;48.776;9.128;2022-08-30T16:22:32;3.13;;;2.20;;
10311;SDS011;5201;48.776;9.128;2022-08-30T16:24:57;2.10;;;1.90;;
10311;SDS011;5201;48.776;9.128;2022-08-30T16:27:23;2.55;;;1.85;;
10311;SDS011;5201;48.776;9.128;2022-08-30T16:29:49;2.08;;;1.88;;
10311;SDS011;5201;48.776;9.128;2022-08-30T16:32:15;2.38;;;2.13;;
10311;SDS011;5201;48.776;9.128;2022-08-30T16:34:41;6.50;;;2.70;;
10311;SDS011;5201;48.776;9.128;2022-08-30T16:37:06;4.90;;;1.90;;
10311;SDS011;5201;48.776;9.128;2022-08-30T16:39:32;2.30;;;2.00;;
10311;SDS011;5201;48.776;9.128;2022-08-30T16:41:58;4.53;;;2.50;;
10311;SDS011;5201;48.776;9.128;2022-08-30T16:44:25;5.03;;;2.20;;